Startpagina
METAR-TAF:

METAR-TAF

Vliegvelden :

Panama Pacifico, Panama

breedte: 08-55N, lengte: 079-36W, hoogte: 16 m

Actueel weer

Dit bericht is 22 minuten geleden gemaakt, om 17:00 UTC
Wind 8 kt uit het zuidzuidwesten
Temperatuur 30°C
Vochtigheid 66%
Druk 1013 hPa
Zicht 10 km of meer
Weinig wolken op 2000 ft

METAR: MPPA 261700Z 20008KT 9999 FEW020 30/23 Q1013

Tijdstip: 12:22 (17:22 UTC)

Verwachting

Dit bericht is 6 uur en het 22 minuten geleden gemaakt, om 11:00 UTC
Verwachting geldig van 26 om 12 UTC tot 27 om 18 UTC
Wind 8 kt uit het noorden
Zicht 10 km of meer
Weinig wolken op 2000 ft
Tijdelijke
van 26 om 12 UTC tot 26 om 14 UTC
Wind kt uit het noorden
Wijzigt naar
van 26 om 17 UTC tot 26 om 21 UTC
Wind 15 kt uit het noordnoordoosten
Wijzigt naar
van 27 om 02 UTC tot 27 om 06 UTC
Zicht 10 km of meer
geen wolken onder 1500 m en geen cumulonimbus

TAF: MPPA 261100Z 2612/2718 01008KT 9999 FEW020 TEMPO 2612/2614 00000KT BECMG 2617/2621 03015KT BECMG 2702/2706 CAVOK

Waarnemingen en weersverwachtingen van meer dan 4000 vliegvelden (METAR en TAF).

De beschikbare stations zijn de gele en rode punten op de kaart.

Ga met uw muis naar het station om de naam te zien.

Klik dan om waarnemingen en weersverwachtingen te zien.

kaart wijzigen: klik op de groene knoppen met een zwart kruis om in te zoomen, op de groene knop met een streepje om uit te zoomen of op de groene pijlen voor aangrenzende kaarten.


METAR-TAF: